sensor_id;sensor_type;location;lat;lon;timestamp;temperature;humidity
13251;DHT22;6692;50.710;7.180;2024-03-25T00:01:13;6.90;99.90
13251;DHT22;6692;50.710;7.180;2024-03-25T00:03:13;6.90;99.90
13251;DHT22;6692;50.710;7.180;2024-03-25T00:05:14;6.90;99.90
13251;DHT22;6692;50.710;7.180;2024-03-25T00:07:16;7.00;99.90
13251;DHT22;6692;50.710;7.180;2024-03-25T00:09:17;6.90;99.90
13251;DHT22;6692;50.710;7.180;2024-03-25T00:11:18;7.00;99.90
13251;DHT22;6692;50.710;7.180;2024-03-25T00:13:19;7.00;99.90
13251;DHT22;6692;50.710;7.180;2024-03-25T00:15:20;7.00;99.90
13251;DHT22;6692;50.710;7.180;2024-03-25T00:17:20;7.00;99.90
13251;DHT22;6692;50.710;7.180;2024-03-25T00:19:21;7.00;99.90
13251;DHT22;6692;50.710;7.180;2024-03-25T00:21:22;7.00;99.90
13251;DHT22;6692;50.710;7.180;2024-03-25T00:23:22;7.00;99.90
13251;DHT22;6692;50.710;7.180;2024-03-25T00:25:23;7.00;99.90
13251;DHT22;6692;50.710;7.180;2024-03-25T00:27:24;7.00;99.90
13251;DHT22;6692;50.710;7.180;2024-03-25T00:29:25;7.00;99.90
13251;DHT22;6692;50.710;7.180;2024-03-25T00:31:25;7.00;99.90
13251;DHT22;6692;50.710;7.180;2024-03-25T00:33:26;6.90;99.90
13251;DHT22;6692;50.710;7.180;2024-03-25T00:35:27;6.90;99.90
13251;DHT22;6692;50.710;7.180;2024-03-25T00:37:28;6.80;99.90
13251;DHT22;6692;50.710;7.180;2024-03-25T00:39:29;6.80;99.90
13251;DHT22;6692;50.710;7.180;2024-03-25T00:41:30;6.70;99.90
13251;DHT22;6692;50.710;7.180;2024-03-25T00:43:31;6.70;99.90
13251;DHT22;6692;50.710;7.180;2024-03-25T00:45:32;6.70;99.90
13251;DHT22;6692;50.710;7.180;2024-03-25T00:47:33;6.60;99.90
13251;DHT22;6692;50.710;7.180;2024-03-25T00:49:33;6.50;99.90
13251;DHT22;6692;50.710;7.180;2024-03-25T00:51:34;6.50;99.90
13251;DHT22;6692;50.710;7.180;2024-03-25T00:53:35;6.40;99.90
13251;DHT22;6692;50.710;7.180;2024-03-25T00:55:36;6.40;99.90
13251;DHT22;6692;50.710;7.180;2024-03-25T00:57:37;6.40;99.90
13251;DHT22;6692;50.710;7.180;2024-03-25T00:59:38;6.40;99.90
13251;DHT22;6692;50.710;7.180;2024-03-25T01:01:39;6.40;99.90
13251;DHT22;6692;50.710;7.180;2024-03-25T01:03:40;6.40;99.90
13251;DHT22;6692;50.710;7.180;2024-03-25T01:05:41;6.40;99.90
13251;DHT22;6692;50.710;7.180;2024-03-25T01:07:41;6.40;99.90
13251;DHT22;6692;50.710;7.180;2024-03-25T01:09:42;6.40;99.90
13251;DHT22;6692;50.710;7.180;2024-03-25T01:11:43;6.40;99.90
13251;DHT22;6692;50.710;7.180;2024-03-25T01:13:44;6.40;99.90
13251;DHT22;6692;50.710;7.180;2024-03-25T01:15:44;6.40;99.90
13251;DHT22;6692;50.710;7.180;2024-03-25T01:17:45;6.30;99.90
13251;DHT22;6692;50.710;7.180;2024-03-25T01:19:46;6.30;99.90
13251;DHT22;6692;50.710;7.180;2024-03-25T01:21:48;6.30;99.90
13251;DHT22;6692;50.710;7.180;2024-03-25T01:23:49;6.20;99.90
13251;DHT22;6692;50.710;7.180;2024-03-25T01:25:50;6.20;99.90
13251;DHT22;6692;50.710;7.180;2024-03-25T01:27:51;6.20;99.90
13251;DHT22;6692;50.710;7.180;2024-03-25T01:29:51;6.10;99.90
13251;DHT22;6692;50.710;7.180;2024-03-25T01:31:52;6.10;99.90
13251;DHT22;6692;50.710;7.180;2024-03-25T01:33:53;6.20;99.90
13251;DHT22;6692;50.710;7.180;2024-03-25T01:35:54;6.20;99.90
13251;DHT22;6692;50.710;7.180;2024-03-25T01:37:54;6.20;99.90
13251;DHT22;6692;50.710;7.180;2024-03-25T01:39:56;6.30;99.90
13251;DHT22;6692;50.710;7.180;2024-03-25T01:41:57;6.30;99.90
13251;DHT22;6692;50.710;7.180;2024-03-25T01:43:58;6.30;99.90
13251;DHT22;6692;50.710;7.180;2024-03-25T01:45:59;6.40;99.90
13251;DHT22;6692;50.710;7.180;2024-03-25T01:48:02;6.40;99.90
13251;DHT22;6692;50.710;7.180;2024-03-25T01:50:02;6.40;99.90
13251;DHT22;6692;50.710;7.180;2024-03-25T01:52:03;6.40;99.90
13251;DHT22;6692;50.710;7.180;2024-03-25T01:54:05;6.40;99.90
13251;DHT22;6692;50.710;7.180;2024-03-25T01:56:06;6.40;99.90
13251;DHT22;6692;50.710;7.180;2024-03-25T01:58:06;6.40;99.90
13251;DHT22;6692;50.710;7.180;2024-03-25T02:00:07;6.40;99.90
13251;DHT22;6692;50.710;7.180;2024-03-25T02:02:08;6.40;99.90
13251;DHT22;6692;50.710;7.180;2024-03-25T02:04:09;6.40;99.90
13251;DHT22;6692;50.710;7.180;2024-03-25T02:06:12;6.40;99.90
13251;DHT22;6692;50.710;7.180;2024-03-25T02:08:11;6.40;99.90
13251;DHT22;6692;50.710;7.180;2024-03-25T02:10:12;6.40;99.90
13251;DHT22;6692;50.710;7.180;2024-03-25T02:12:15;6.40;99.90
13251;DHT22;6692;50.710;7.180;2024-03-25T02:14:15;6.40;99.90
13251;DHT22;6692;50.710;7.180;2024-03-25T02:16:16;6.40;99.90
13251;DHT22;6692;50.710;7.180;2024-03-25T02:18:17;6.40;99.90
13251;DHT22;6692;50.710;7.180;2024-03-25T02:20:17;6.40;99.90
13251;DHT22;6692;50.710;7.180;2024-03-25T02:22:18;6.40;99.90
13251;DHT22;6692;50.710;7.180;2024-03-25T02:24:19;6.50;99.90
13251;DHT22;6692;50.710;7.180;2024-03-25T02:26:20;6.40;99.90
13251;DHT22;6692;50.710;7.180;2024-03-25T02:28:21;6.40;99.90
13251;DHT22;6692;50.710;7.180;2024-03-25T02:30:22;6.50;99.90
13251;DHT22;6692;50.710;7.180;2024-03-25T02:32:22;6.50;99.90
13251;DHT22;6692;50.710;7.180;2024-03-25T02:34:23;6.40;99.90
13251;DHT22;6692;50.710;7.180;2024-03-25T02:36:24;6.50;99.90
13251;DHT22;6692;50.710;7.180;2024-03-25T02:38:25;6.40;99.90
13251;DHT22;6692;50.710;7.180;2024-03-25T02:40:26;6.40;99.90
13251;DHT22;6692;50.710;7.180;2024-03-25T02:42:26;6.40;99.90
13251;DHT22;6692;50.710;7.180;2024-03-25T02:44:27;6.40;99.90
13251;DHT22;6692;50.710;7.180;2024-03-25T02:46:28;6.40;99.90
13251;DHT22;6692;50.710;7.180;2024-03-25T02:48:28;6.30;99.90
13251;DHT22;6692;50.710;7.180;2024-03-25T02:50:29;6.30;99.90
13251;DHT22;6692;50.710;7.180;2024-03-25T02:52:30;6.30;99.90
13251;DHT22;6692;50.710;7.180;2024-03-25T02:54:31;6.30;99.90
13251;DHT22;6692;50.710;7.180;2024-03-25T02:56:34;6.30;99.90
13251;DHT22;6692;50.710;7.180;2024-03-25T02:58:33;6.30;99.90
13251;DHT22;6692;50.710;7.180;2024-03-25T03:00:33;6.30;99.90
13251;DHT22;6692;50.710;7.180;2024-03-25T03:02:34;6.30;99.90
13251;DHT22;6692;50.710;7.180;2024-03-25T03:04:35;6.30;99.90
13251;DHT22;6692;50.710;7.180;2024-03-25T03:06:35;6.30;99.90
13251;DHT22;6692;50.710;7.180;2024-03-25T03:08:36;6.30;99.90
13251;DHT22;6692;50.710;7.180;2024-03-25T03:10:38;6.20;99.90
13251;DHT22;6692;50.710;7.180;2024-03-25T03:12:38;6.20;99.90
13251;DHT22;6692;50.710;7.180;2024-03-25T03:14:39;6.20;99.90
13251;DHT22;6692;50.710;7.180;2024-03-25T03:16:40;6.10;99.90
13251;DHT22;6692;50.710;7.180;2024-03-25T03:18:41;6.10;99.90
13251;DHT22;6692;50.710;7.180;2024-03-25T03:20:42;6.10;99.90
13251;DHT22;6692;50.710;7.180;2024-03-25T03:22:45;6.00;99.90
13251;DHT22;6692;50.710;7.180;2024-03-25T03:24:44;6.00;99.90
13251;DHT22;6692;50.710;7.180;2024-03-25T03:26:45;6.00;99.90
13251;DHT22;6692;50.710;7.180;2024-03-25T03:28:46;6.00;99.90
13251;DHT22;6692;50.710;7.180;2024-03-25T03:30:46;5.90;99.90
13251;DHT22;6692;50.710;7.180;2024-03-25T03:32:47;5.90;99.90
13251;DHT22;6692;50.710;7.180;2024-03-25T03:34:48;5.90;99.90
13251;DHT22;6692;50.710;7.180;2024-03-25T03:36:48;5.90;99.90
13251;DHT22;6692;50.710;7.180;2024-03-25T03:38:50;5.90;99.90
13251;DHT22;6692;50.710;7.180;2024-03-25T03:40:59;5.80;99.90
13251;DHT22;6692;50.710;7.180;2024-03-25T03:43:00;5.80;99.90
13251;DHT22;6692;50.710;7.180;2024-03-25T03:45:01;5.80;99.90
13251;DHT22;6692;50.710;7.180;2024-03-25T03:47:03;5.80;99.90
13251;DHT22;6692;50.710;7.180;2024-03-25T03:49:03;5.80;99.90
13251;DHT22;6692;50.710;7.180;2024-03-25T03:51:05;5.70;99.90
13251;DHT22;6692;50.710;7.180;2024-03-25T03:53:06;5.70;99.90
13251;DHT22;6692;50.710;7.180;2024-03-25T03:55:07;5.70;99.90
13251;DHT22;6692;50.710;7.180;2024-03-25T03:57:08;5.70;99.90
13251;DHT22;6692;50.710;7.180;2024-03-25T03:59:10;5.70;99.90
13251;DHT22;6692;50.710;7.180;2024-03-25T04:01:15;5.60;99.90
13251;DHT22;6692;50.710;7.180;2024-03-25T04:03:15;5.70;99.90
13251;DHT22;6692;50.710;7.180;2024-03-25T04:05:16;5.70;99.90
13251;DHT22;6692;50.710;7.180;2024-03-25T04:07:16;5.70;99.90
13251;DHT22;6692;50.710;7.180;2024-03-25T04:09:17;5.70;99.90
13251;DHT22;6692;50.710;7.180;2024-03-25T04:11:18;5.60;99.90
13251;DHT22;6692;50.710;7.180;2024-03-25T04:13:19;5.70;99.90
13251;DHT22;6692;50.710;7.180;2024-03-25T04:15:20;5.60;99.90
13251;DHT22;6692;50.710;7.180;2024-03-25T04:17:21;5.60;99.90
13251;DHT22;6692;50.710;7.180;2024-03-25T04:19:24;5.50;99.90
13251;DHT22;6692;50.710;7.180;2024-03-25T04:21:24;5.50;99.90
13251;DHT22;6692;50.710;7.180;2024-03-25T04:23:25;5.50;99.90
13251;DHT22;6692;50.710;7.180;2024-03-25T04:25:26;5.50;99.90
13251;DHT22;6692;50.710;7.180;2024-03-25T04:27:26;5.50;99.90
13251;DHT22;6692;50.710;7.180;2024-03-25T04:29:27;5.50;99.90
13251;DHT22;6692;50.710;7.180;2024-03-25T04:31:28;5.40;99.90
13251;DHT22;6692;50.710;7.180;2024-03-25T04:33:29;5.40;99.90
13251;DHT22;6692;50.710;7.180;2024-03-25T04:35:29;5.40;99.90
13251;DHT22;6692;50.710;7.180;2024-03-25T04:37:30;5.40;99.90
13251;DHT22;6692;50.710;7.180;2024-03-25T04:39:31;5.40;99.90
13251;DHT22;6692;50.710;7.180;2024-03-25T04:41:31;5.30;99.90
13251;DHT22;6692;50.710;7.180;2024-03-25T04:43:32;5.30;99.90
13251;DHT22;6692;50.710;7.180;2024-03-25T04:45:33;5.30;99.90
13251;DHT22;6692;50.710;7.180;2024-03-25T04:47:34;5.30;99.90
13251;DHT22;6692;50.710;7.180;2024-03-25T04:49:34;5.30;99.90
13251;DHT22;6692;50.710;7.180;2024-03-25T04:51:35;5.20;99.90
13251;DHT22;6692;50.710;7.180;2024-03-25T04:53:36;5.20;99.90
13251;DHT22;6692;50.710;7.180;2024-03-25T04:55:36;5.20;99.90
13251;DHT22;6692;50.710;7.180;2024-03-25T04:57:37;5.10;99.90
13251;DHT22;6692;50.710;7.180;2024-03-25T04:59:38;5.10;99.90
13251;DHT22;6692;50.710;7.180;2024-03-25T05:01:39;5.10;99.90
13251;DHT22;6692;50.710;7.180;2024-03-25T05:03:40;5.10;99.90
13251;DHT22;6692;50.710;7.180;2024-03-25T05:05:40;5.10;99.90
13251;DHT22;6692;50.710;7.180;2024-03-25T05:07:41;5.10;99.90
13251;DHT22;6692;50.710;7.180;2024-03-25T05:09:43;5.10;99.90
13251;DHT22;6692;50.710;7.180;2024-03-25T05:11:44;5.00;99.90
13251;DHT22;6692;50.710;7.180;2024-03-25T05:13:44;5.00;99.90
13251;DHT22;6692;50.710;7.180;2024-03-25T05:15:50;5.00;99.90
13251;DHT22;6692;50.710;7.180;2024-03-25T05:17:51;5.00;99.90
13251;DHT22;6692;50.710;7.180;2024-03-25T05:19:52;4.90;99.90
13251;DHT22;6692;50.710;7.180;2024-03-25T05:21:54;4.90;99.90
13251;DHT22;6692;50.710;7.180;2024-03-25T05:23:54;4.90;99.90
13251;DHT22;6692;50.710;7.180;2024-03-25T05:25:55;4.90;99.90
13251;DHT22;6692;50.710;7.180;2024-03-25T05:27:56;4.80;99.90
13251;DHT22;6692;50.710;7.180;2024-03-25T05:29:57;4.80;99.90
13251;DHT22;6692;50.710;7.180;2024-03-25T05:32:00;4.70;99.90
13251;DHT22;6692;50.710;7.180;2024-03-25T05:34:00;4.80;99.90
13251;DHT22;6692;50.710;7.180;2024-03-25T05:36:02;4.80;99.90
13251;DHT22;6692;50.710;7.180;2024-03-25T05:38:03;4.80;99.90
13251;DHT22;6692;50.710;7.180;2024-03-25T05:40:04;4.80;99.90
13251;DHT22;6692;50.710;7.180;2024-03-25T05:42:06;4.90;99.90
13251;DHT22;6692;50.710;7.180;2024-03-25T05:44:07;4.90;99.90
13251;DHT22;6692;50.710;7.180;2024-03-25T05:46:07;4.90;99.90
13251;DHT22;6692;50.710;7.180;2024-03-25T05:48:08;4.90;99.90
13251;DHT22;6692;50.710;7.180;2024-03-25T05:50:09;4.90;99.90
13251;DHT22;6692;50.710;7.180;2024-03-25T05:52:11;5.00;99.90
13251;DHT22;6692;50.710;7.180;2024-03-25T05:54:12;5.00;99.90
13251;DHT22;6692;50.710;7.180;2024-03-25T05:56:13;5.00;99.90
13251;DHT22;6692;50.710;7.180;2024-03-25T05:58:13;5.00;99.90
13251;DHT22;6692;50.710;7.180;2024-03-25T06:00:15;5.00;99.90
13251;DHT22;6692;50.710;7.180;2024-03-25T06:02:16;4.90;99.90
13251;DHT22;6692;50.710;7.180;2024-03-25T06:04:16;4.90;99.90
13251;DHT22;6692;50.710;7.180;2024-03-25T06:06:17;5.00;99.90
13251;DHT22;6692;50.710;7.180;2024-03-25T06:08:18;5.00;99.90
13251;DHT22;6692;50.710;7.180;2024-03-25T06:10:18;5.00;99.90
13251;DHT22;6692;50.710;7.180;2024-03-25T06:12:19;5.00;99.90
13251;DHT22;6692;50.710;7.180;2024-03-25T06:14:20;5.00;99.90
13251;DHT22;6692;50.710;7.180;2024-03-25T06:16:21;5.10;99.90
13251;DHT22;6692;50.710;7.180;2024-03-25T06:18:21;5.10;99.90
13251;DHT22;6692;50.710;7.180;2024-03-25T06:20:22;5.10;99.90
13251;DHT22;6692;50.710;7.180;2024-03-25T06:22:23;5.10;99.90
13251;DHT22;6692;50.710;7.180;2024-03-25T06:24:23;5.20;99.90
13251;DHT22;6692;50.710;7.180;2024-03-25T06:26:24;5.20;99.90
13251;DHT22;6692;50.710;7.180;2024-03-25T06:28:25;5.20;99.90
13251;DHT22;6692;50.710;7.180;2024-03-25T06:30:26;5.20;99.90
13251;DHT22;6692;50.710;7.180;2024-03-25T06:32:32;5.20;99.90
13251;DHT22;6692;50.710;7.180;2024-03-25T06:34:39;5.20;99.90
13251;DHT22;6692;50.710;7.180;2024-03-25T06:36:40;5.20;99.90
13251;DHT22;6692;50.710;7.180;2024-03-25T06:38:41;5.30;99.90
13251;DHT22;6692;50.710;7.180;2024-03-25T06:40:41;5.30;99.90
13251;DHT22;6692;50.710;7.180;2024-03-25T06:42:42;5.30;99.90
13251;DHT22;6692;50.710;7.180;2024-03-25T06:44:43;5.30;99.90
13251;DHT22;6692;50.710;7.180;2024-03-25T06:46:43;5.40;99.90
13251;DHT22;6692;50.710;7.180;2024-03-25T06:48:44;5.40;99.90
13251;DHT22;6692;50.710;7.180;2024-03-25T06:50:54;5.40;99.90
13251;DHT22;6692;50.710;7.180;2024-03-25T06:52:55;5.50;99.90
13251;DHT22;6692;50.710;7.180;2024-03-25T06:54:55;5.50;99.90
13251;DHT22;6692;50.710;7.180;2024-03-25T06:56:56;5.60;99.90
13251;DHT22;6692;50.710;7.180;2024-03-25T06:58:57;5.60;99.90
13251;DHT22;6692;50.710;7.180;2024-03-25T07:01:03;5.60;99.90
13251;DHT22;6692;50.710;7.180;2024-03-25T07:02:59;5.70;99.90
13251;DHT22;6692;50.710;7.180;2024-03-25T07:05:00;5.70;99.90
13251;DHT22;6692;50.710;7.180;2024-03-25T07:07:00;5.80;99.90
13251;DHT22;6692;50.710;7.180;2024-03-25T07:09:01;5.80;99.90
13251;DHT22;6692;50.710;7.180;2024-03-25T07:11:03;5.90;99.90
13251;DHT22;6692;50.710;7.180;2024-03-25T07:13:04;5.80;99.90
13251;DHT22;6692;50.710;7.180;2024-03-25T07:15:05;5.90;99.90
13251;DHT22;6692;50.710;7.180;2024-03-25T07:17:06;6.00;99.90
13251;DHT22;6692;50.710;7.180;2024-03-25T07:19:07;6.00;99.90
13251;DHT22;6692;50.710;7.180;2024-03-25T07:21:08;6.10;99.90
13251;DHT22;6692;50.710;7.180;2024-03-25T07:23:09;6.10;99.90
13251;DHT22;6692;50.710;7.180;2024-03-25T07:25:10;6.10;99.90
13251;DHT22;6692;50.710;7.180;2024-03-25T07:27:11;6.10;99.90
13251;DHT22;6692;50.710;7.180;2024-03-25T07:29:11;6.20;99.90
13251;DHT22;6692;50.710;7.180;2024-03-25T07:31:12;6.20;99.90
13251;DHT22;6692;50.710;7.180;2024-03-25T07:33:13;6.30;99.90
13251;DHT22;6692;50.710;7.180;2024-03-25T07:35:14;6.30;99.90
13251;DHT22;6692;50.710;7.180;2024-03-25T07:37:14;6.30;99.90
13251;DHT22;6692;50.710;7.180;2024-03-25T07:39:15;6.40;99.90
13251;DHT22;6692;50.710;7.180;2024-03-25T07:41:16;6.40;99.90
13251;DHT22;6692;50.710;7.180;2024-03-25T07:43:17;6.40;99.90
13251;DHT22;6692;50.710;7.180;2024-03-25T07:45:18;6.50;99.90
13251;DHT22;6692;50.710;7.180;2024-03-25T07:47:20;6.60;99.90
13251;DHT22;6692;50.710;7.180;2024-03-25T07:49:22;6.70;99.90
13251;DHT22;6692;50.710;7.180;2024-03-25T07:51:30;6.70;99.90
13251;DHT22;6692;50.710;7.180;2024-03-25T07:53:31;6.70;99.90
13251;DHT22;6692;50.710;7.180;2024-03-25T07:55:32;6.80;99.90
13251;DHT22;6692;50.710;7.180;2024-03-25T07:57:33;6.90;99.90
13251;DHT22;6692;50.710;7.180;2024-03-25T07:59:33;7.00;99.90
13251;DHT22;6692;50.710;7.180;2024-03-25T08:01:34;7.00;99.90
13251;DHT22;6692;50.710;7.180;2024-03-25T08:03:35;7.00;99.90
13251;DHT22;6692;50.710;7.180;2024-03-25T08:05:36;7.10;99.90
13251;DHT22;6692;50.710;7.180;2024-03-25T08:07:37;7.10;99.90
13251;DHT22;6692;50.710;7.180;2024-03-25T08:09:38;7.10;99.90
13251;DHT22;6692;50.710;7.180;2024-03-25T08:11:38;7.20;99.90
13251;DHT22;6692;50.710;7.180;2024-03-25T08:13:39;7.20;99.90
13251;DHT22;6692;50.710;7.180;2024-03-25T08:15:41;7.30;99.90
13251;DHT22;6692;50.710;7.180;2024-03-25T08:17:40;7.30;99.90
13251;DHT22;6692;50.710;7.180;2024-03-25T08:19:41;7.30;99.90
13251;DHT22;6692;50.710;7.180;2024-03-25T08:21:42;7.40;99.90
13251;DHT22;6692;50.710;7.180;2024-03-25T08:23:45;7.50;99.90
13251;DHT22;6692;50.710;7.180;2024-03-25T08:25:45;7.50;99.90
13251;DHT22;6692;50.710;7.180;2024-03-25T08:27:47;7.60;99.90
13251;DHT22;6692;50.710;7.180;2024-03-25T08:29:47;7.50;99.90
13251;DHT22;6692;50.710;7.180;2024-03-25T08:31:48;7.60;99.90
13251;DHT22;6692;50.710;7.180;2024-03-25T08:33:49;7.60;99.90
13251;DHT22;6692;50.710;7.180;2024-03-25T08:35:50;7.60;99.90
13251;DHT22;6692;50.710;7.180;2024-03-25T08:37:51;7.70;99.90
13251;DHT22;6692;50.710;7.180;2024-03-25T08:39:51;7.70;99.90
13251;DHT22;6692;50.710;7.180;2024-03-25T08:41:52;7.70;99.90
13251;DHT22;6692;50.710;7.180;2024-03-25T08:43:53;7.70;99.90
13251;DHT22;6692;50.710;7.180;2024-03-25T08:45:54;7.80;99.90
13251;DHT22;6692;50.710;7.180;2024-03-25T08:47:54;7.80;99.90
13251;DHT22;6692;50.710;7.180;2024-03-25T08:49:55;7.80;99.90
13251;DHT22;6692;50.710;7.180;2024-03-25T08:51:56;7.90;99.90
13251;DHT22;6692;50.710;7.180;2024-03-25T08:53:57;7.90;99.90
13251;DHT22;6692;50.710;7.180;2024-03-25T08:55:58;7.90;99.90
13251;DHT22;6692;50.710;7.180;2024-03-25T08:58:00;8.00;99.90
13251;DHT22;6692;50.710;7.180;2024-03-25T09:00:01;8.00;99.90
13251;DHT22;6692;50.710;7.180;2024-03-25T09:02:01;8.00;99.90
13251;DHT22;6692;50.710;7.180;2024-03-25T09:04:02;8.10;99.90
13251;DHT22;6692;50.710;7.180;2024-03-25T09:06:03;8.10;99.90
13251;DHT22;6692;50.710;7.180;2024-03-25T09:08:06;8.20;99.90
13251;DHT22;6692;50.710;7.180;2024-03-25T09:10:06;8.20;99.90
13251;DHT22;6692;50.710;7.180;2024-03-25T09:12:13;8.20;99.90
13251;DHT22;6692;50.710;7.180;2024-03-25T09:14:14;8.30;99.90
13251;DHT22;6692;50.710;7.180;2024-03-25T09:16:15;8.30;99.90
13251;DHT22;6692;50.710;7.180;2024-03-25T09:18:16;8.30;99.90
13251;DHT22;6692;50.710;7.180;2024-03-25T09:20:16;8.30;99.90
13251;DHT22;6692;50.710;7.180;2024-03-25T09:22:18;8.40;99.90
13251;DHT22;6692;50.710;7.180;2024-03-25T09:24:19;8.50;99.90
13251;DHT22;6692;50.710;7.180;2024-03-25T09:26:21;8.50;99.90
13251;DHT22;6692;50.710;7.180;2024-03-25T09:28:23;8.50;99.90
13251;DHT22;6692;50.710;7.180;2024-03-25T09:30:23;8.50;99.90
13251;DHT22;6692;50.710;7.180;2024-03-25T09:32:24;8.50;99.90
13251;DHT22;6692;50.710;7.180;2024-03-25T09:34:25;8.60;99.90
13251;DHT22;6692;50.710;7.180;2024-03-25T09:36:25;8.60;99.90
13251;DHT22;6692;50.710;7.180;2024-03-25T09:38:26;8.70;99.90
13251;DHT22;6692;50.710;7.180;2024-03-25T09:40:28;8.80;99.90
13251;DHT22;6692;50.710;7.180;2024-03-25T09:42:33;8.70;99.90
13251;DHT22;6692;50.710;7.180;2024-03-25T09:44:32;8.80;99.90
13251;DHT22;6692;50.710;7.180;2024-03-25T09:46:33;8.80;99.90
13251;DHT22;6692;50.710;7.180;2024-03-25T09:48:34;8.80;99.90
13251;DHT22;6692;50.710;7.180;2024-03-25T09:50:35;8.80;99.90
13251;DHT22;6692;50.710;7.180;2024-03-25T09:52:36;8.80;99.90
13251;DHT22;6692;50.710;7.180;2024-03-25T09:54:37;8.90;99.90
13251;DHT22;6692;50.710;7.180;2024-03-25T09:56:38;8.90;99.90
13251;DHT22;6692;50.710;7.180;2024-03-25T09:58:39;8.90;99.90
13251;DHT22;6692;50.710;7.180;2024-03-25T10:00:39;8.80;99.90
13251;DHT22;6692;50.710;7.180;2024-03-25T10:02:40;8.80;99.90
13251;DHT22;6692;50.710;7.180;2024-03-25T10:04:44;8.90;99.90
13251;DHT22;6692;50.710;7.180;2024-03-25T10:06:41;9.00;99.90
13251;DHT22;6692;50.710;7.180;2024-03-25T10:08:42;9.10;99.90
13251;DHT22;6692;50.710;7.180;2024-03-25T10:10:43;9.20;99.90
13251;DHT22;6692;50.710;7.180;2024-03-25T10:12:43;9.20;99.90
13251;DHT22;6692;50.710;7.180;2024-03-25T10:14:45;9.20;99.90
13251;DHT22;6692;50.710;7.180;2024-03-25T10:16:46;9.10;99.90
13251;DHT22;6692;50.710;7.180;2024-03-25T10:18:46;9.10;99.90
13251;DHT22;6692;50.710;7.180;2024-03-25T10:20:49;9.10;99.90
13251;DHT22;6692;50.710;7.180;2024-03-25T10:22:49;9.10;99.90
13251;DHT22;6692;50.710;7.180;2024-03-25T10:24:50;9.10;99.90
13251;DHT22;6692;50.710;7.180;2024-03-25T10:26:51;9.10;99.90
13251;DHT22;6692;50.710;7.180;2024-03-25T10:29:02;9.00;99.90
13251;DHT22;6692;50.710;7.180;2024-03-25T10:31:03;9.10;99.90
13251;DHT22;6692;50.710;7.180;2024-03-25T10:33:04;9.00;99.90
13251;DHT22;6692;50.710;7.180;2024-03-25T10:35:05;9.00;99.90
13251;DHT22;6692;50.710;7.180;2024-03-25T10:37:08;9.10;99.90
13251;DHT22;6692;50.710;7.180;2024-03-25T10:39:07;9.10;99.90
13251;DHT22;6692;50.710;7.180;2024-03-25T10:41:08;9.20;99.90
13251;DHT22;6692;50.710;7.180;2024-03-25T10:43:09;9.20;99.90
13251;DHT22;6692;50.710;7.180;2024-03-25T10:45:09;9.20;99.90
13251;DHT22;6692;50.710;7.180;2024-03-25T10:47:11;9.20;99.90
13251;DHT22;6692;50.710;7.180;2024-03-25T10:49:16;9.30;99.90
13251;DHT22;6692;50.710;7.180;2024-03-25T10:51:15;9.30;99.90
13251;DHT22;6692;50.710;7.180;2024-03-25T10:53:17;9.30;99.90
13251;DHT22;6692;50.710;7.180;2024-03-25T10:55:16;9.30;99.90
13251;DHT22;6692;50.710;7.180;2024-03-25T10:57:17;9.40;99.90
13251;DHT22;6692;50.710;7.180;2024-03-25T10:59:18;9.40;99.90
13251;DHT22;6692;50.710;7.180;2024-03-25T11:01:19;9.60;99.90
13251;DHT22;6692;50.710;7.180;2024-03-25T11:03:20;9.50;99.90
13251;DHT22;6692;50.710;7.180;2024-03-25T11:05:20;9.60;99.90
13251;DHT22;6692;50.710;7.180;2024-03-25T11:07:27;9.70;99.90
13251;DHT22;6692;50.710;7.180;2024-03-25T11:09:25;9.70;99.90
13251;DHT22;6692;50.710;7.180;2024-03-25T11:11:32;9.80;99.90
13251;DHT22;6692;50.710;7.180;2024-03-25T11:13:32;9.80;99.90
13251;DHT22;6692;50.710;7.180;2024-03-25T11:15:36;9.90;99.90
13251;DHT22;6692;50.710;7.180;2024-03-25T11:17:36;10.00;99.90
13251;DHT22;6692;50.710;7.180;2024-03-25T11:19:38;10.00;99.90
13251;DHT22;6692;50.710;7.180;2024-03-25T11:21:39;10.00;99.90
13251;DHT22;6692;50.710;7.180;2024-03-25T11:23:41;10.10;99.90
13251;DHT22;6692;50.710;7.180;2024-03-25T11:25:41;10.10;99.90
13251;DHT22;6692;50.710;7.180;2024-03-25T11:27:43;10.10;99.90
13251;DHT22;6692;50.710;7.180;2024-03-25T11:29:43;10.20;99.90
13251;DHT22;6692;50.710;7.180;2024-03-25T11:31:44;10.20;99.90
13251;DHT22;6692;50.710;7.180;2024-03-25T11:33:45;10.20;99.90
13251;DHT22;6692;50.710;7.180;2024-03-25T11:35:46;10.20;99.90
13251;DHT22;6692;50.710;7.180;2024-03-25T11:37:46;10.20;99.90
13251;DHT22;6692;50.710;7.180;2024-03-25T11:39:47;10.20;99.90
13251;DHT22;6692;50.710;7.180;2024-03-25T11:41:47;10.30;99.90
13251;DHT22;6692;50.710;7.180;2024-03-25T11:43:48;10.30;99.90
13251;DHT22;6692;50.710;7.180;2024-03-25T11:45:49;10.30;99.90
13251;DHT22;6692;50.710;7.180;2024-03-25T11:47:50;10.30;99.90
13251;DHT22;6692;50.710;7.180;2024-03-25T11:49:51;10.40;99.90
13251;DHT22;6692;50.710;7.180;2024-03-25T11:51:52;10.40;99.90
13251;DHT22;6692;50.710;7.180;2024-03-25T11:53:52;10.40;99.90
13251;DHT22;6692;50.710;7.180;2024-03-25T11:55:53;10.50;99.90
13251;DHT22;6692;50.710;7.180;2024-03-25T11:57:54;10.50;99.90
13251;DHT22;6692;50.710;7.180;2024-03-25T11:59:55;10.50;99.90
13251;DHT22;6692;50.710;7.180;2024-03-25T12:01:55;10.50;99.90
13251;DHT22;6692;50.710;7.180;2024-03-25T12:03:56;10.50;99.90
13251;DHT22;6692;50.710;7.180;2024-03-25T12:05:57;10.50;99.90
13251;DHT22;6692;50.710;7.180;2024-03-25T12:07:57;10.50;99.90
13251;DHT22;6692;50.710;7.180;2024-03-25T12:09:58;10.50;99.90
13251;DHT22;6692;50.710;7.180;2024-03-25T12:12:05;10.40;99.90
13251;DHT22;6692;50.710;7.180;2024-03-25T12:14:07;10.50;99.90
13251;DHT22;6692;50.710;7.180;2024-03-25T12:16:08;10.50;99.90
13251;DHT22;6692;50.710;7.180;2024-03-25T12:18:08;10.40;99.90
13251;DHT22;6692;50.710;7.180;2024-03-25T12:20:09;10.40;99.90
13251;DHT22;6692;50.710;7.180;2024-03-25T12:22:12;10.50;99.90
13251;DHT22;6692;50.710;7.180;2024-03-25T12:24:12;10.50;99.90
13251;DHT22;6692;50.710;7.180;2024-03-25T12:26:13;10.60;99.90
13251;DHT22;6692;50.710;7.180;2024-03-25T12:28:14;10.70;99.90
13251;DHT22;6692;50.710;7.180;2024-03-25T12:30:15;10.70;99.90
13251;DHT22;6692;50.710;7.180;2024-03-25T12:32:16;10.90;99.90
13251;DHT22;6692;50.710;7.180;2024-03-25T12:34:17;10.90;99.90
13251;DHT22;6692;50.710;7.180;2024-03-25T12:36:17;11.00;99.90
13251;DHT22;6692;50.710;7.180;2024-03-25T12:38:22;11.10;99.90
13251;DHT22;6692;50.710;7.180;2024-03-25T12:40:25;11.10;99.90
13251;DHT22;6692;50.710;7.180;2024-03-25T12:42:25;11.20;99.90
13251;DHT22;6692;50.710;7.180;2024-03-25T12:44:26;11.20;99.90
13251;DHT22;6692;50.710;7.180;2024-03-25T12:46:27;11.30;99.90
13251;DHT22;6692;50.710;7.180;2024-03-25T12:48:28;11.40;99.90
13251;DHT22;6692;50.710;7.180;2024-03-25T12:50:29;11.50;99.90
13251;DHT22;6692;50.710;7.180;2024-03-25T12:52:29;11.70;99.90
13251;DHT22;6692;50.710;7.180;2024-03-25T12:54:30;12.10;99.90
13251;DHT22;6692;50.710;7.180;2024-03-25T12:56:31;12.70;99.90
13251;DHT22;6692;50.710;7.180;2024-03-25T12:58:32;13.50;99.90
13251;DHT22;6692;50.710;7.180;2024-03-25T13:00:32;14.30;99.90
13251;DHT22;6692;50.710;7.180;2024-03-25T13:02:34;15.90;99.90
13251;DHT22;6692;50.710;7.180;2024-03-25T13:04:35;16.60;99.90
13251;DHT22;6692;50.710;7.180;2024-03-25T13:06:36;16.50;99.90
13251;DHT22;6692;50.710;7.180;2024-03-25T13:08:37;17.00;99.90